sensor_id;sensor_type;location;lat;lon;timestamp;P1;durP1;ratioP1;P2;durP2;ratioP2
78844;SDS011;68195;50.854;2.860;2023-08-06T00:00:37;5.68;;;1.75;;
78844;SDS011;68195;50.854;2.860;2023-08-06T00:03:06;5.72;;;1.45;;
78844;SDS011;68195;50.854;2.860;2023-08-06T00:05:31;5.03;;;1.63;;
78844;SDS011;68195;50.854;2.860;2023-08-06T00:07:59;4.97;;;1.83;;
78844;SDS011;68195;50.854;2.860;2023-08-06T00:10:24;2.97;;;1.52;;
78844;SDS011;68195;50.854;2.860;2023-08-06T00:12:50;7.13;;;2.03;;
78844;SDS011;68195;50.854;2.860;2023-08-06T00:15:15;4.00;;;1.83;;
78844;SDS011;68195;50.854;2.860;2023-08-06T00:20:08;6.40;;;1.73;;
78844;SDS011;68195;50.854;2.860;2023-08-06T00:22:35;6.35;;;2.42;;
78844;SDS011;68195;50.854;2.860;2023-08-06T00:25:04;9.30;;;1.60;;
78844;SDS011;68195;50.854;2.860;2023-08-06T00:27:30;4.75;;;1.77;;
78844;SDS011;68195;50.854;2.860;2023-08-06T00:32:21;7.82;;;1.85;;
78844;SDS011;68195;50.854;2.860;2023-08-06T00:34:48;11.07;;;1.95;;
78844;SDS011;68195;50.854;2.860;2023-08-06T00:39:42;4.60;;;1.70;;
78844;SDS011;68195;50.854;2.860;2023-08-06T00:42:09;5.30;;;1.55;;
78844;SDS011;68195;50.854;2.860;2023-08-06T00:44:40;5.95;;;1.95;;
78844;SDS011;68195;50.854;2.860;2023-08-06T00:47:06;5.50;;;1.52;;
78844;SDS011;68195;50.854;2.860;2023-08-06T00:49:33;6.47;;;1.50;;
78844;SDS011;68195;50.854;2.860;2023-08-06T00:52:00;3.42;;;1.80;;
78844;SDS011;68195;50.854;2.860;2023-08-06T00:56:52;4.28;;;1.40;;
78844;SDS011;68195;50.854;2.860;2023-08-06T00:59:18;2.72;;;1.25;;
78844;SDS011;68195;50.854;2.860;2023-08-06T01:01:45;6.47;;;1.83;;
78844;SDS011;68195;50.854;2.860;2023-08-06T01:04:10;2.97;;;1.60;;
78844;SDS011;68195;50.854;2.860;2023-08-06T01:06:52;3.92;;;2.10;;
78844;SDS011;68195;50.854;2.860;2023-08-06T01:15:01;7.40;;;2.80;;
78844;SDS011;68195;50.854;2.860;2023-08-06T01:17:33;7.03;;;3.58;;
78844;SDS011;68195;50.854;2.860;2023-08-06T01:20:00;8.07;;;3.78;;
78844;SDS011;68195;50.854;2.860;2023-08-06T01:24:51;8.33;;;3.80;;
78844;SDS011;68195;50.854;2.860;2023-08-06T01:27:26;10.52;;;3.35;;
78844;SDS011;68195;50.854;2.860;2023-08-06T01:30:08;10.13;;;3.40;;
78844;SDS011;68195;50.854;2.860;2023-08-06T01:32:39;9.10;;;3.38;;
78844;SDS011;68195;50.854;2.860;2023-08-06T01:35:08;6.85;;;2.80;;
78844;SDS011;68195;50.854;2.860;2023-08-06T01:37:39;9.85;;;3.40;;
78844;SDS011;68195;50.854;2.860;2023-08-06T01:40:12;9.77;;;3.40;;
78844;SDS011;68195;50.854;2.860;2023-08-06T01:42:38;8.60;;;3.13;;
78844;SDS011;68195;50.854;2.860;2023-08-06T01:45:06;9.88;;;3.83;;
78844;SDS011;68195;50.854;2.860;2023-08-06T01:47:36;9.90;;;3.33;;
78844;SDS011;68195;50.854;2.860;2023-08-06T01:50:03;10.98;;;4.32;;
78844;SDS011;68195;50.854;2.860;2023-08-06T01:52:34;11.63;;;3.53;;
78844;SDS011;68195;50.854;2.860;2023-08-06T01:55:00;7.38;;;3.15;;
78844;SDS011;68195;50.854;2.860;2023-08-06T01:59:55;8.00;;;2.88;;
78844;SDS011;68195;50.854;2.860;2023-08-06T02:02:20;7.05;;;3.20;;
78844;SDS011;68195;50.854;2.860;2023-08-06T02:07:11;5.60;;;2.60;;
78844;SDS011;68195;50.854;2.860;2023-08-06T02:09:39;8.38;;;2.50;;
78844;SDS011;68195;50.854;2.860;2023-08-06T02:14:30;8.48;;;2.58;;
78844;SDS011;68195;50.854;2.860;2023-08-06T02:16:58;8.57;;;2.33;;
78844;SDS011;68195;50.854;2.860;2023-08-06T02:21:49;6.57;;;2.03;;
78844;SDS011;68195;50.854;2.860;2023-08-06T02:24:16;7.60;;;2.90;;
78844;SDS011;68195;50.854;2.860;2023-08-06T02:29:09;8.35;;;2.60;;
78844;SDS011;68195;50.854;2.860;2023-08-06T02:34:00;9.23;;;2.77;;
78844;SDS011;68195;50.854;2.860;2023-08-06T02:36:28;10.77;;;3.92;;
78844;SDS011;68195;50.854;2.860;2023-08-06T02:38:54;8.82;;;3.67;;
78844;SDS011;68195;50.854;2.860;2023-08-06T02:43:45;11.10;;;3.50;;
78844;SDS011;68195;50.854;2.860;2023-08-06T02:48:36;12.33;;;3.60;;
78844;SDS011;68195;50.854;2.860;2023-08-06T02:53:27;8.00;;;3.57;;
78844;SDS011;68195;50.854;2.860;2023-08-06T02:58:17;8.63;;;3.80;;
78844;SDS011;68195;50.854;2.860;2023-08-06T03:00:47;14.27;;;4.18;;
78844;SDS011;68195;50.854;2.860;2023-08-06T03:03:24;7.32;;;3.38;;
78844;SDS011;68195;50.854;2.860;2023-08-06T03:08:18;10.07;;;3.60;;
78844;SDS011;68195;50.854;2.860;2023-08-06T03:10:47;10.05;;;3.65;;
78844;SDS011;68195;50.854;2.860;2023-08-06T03:15:40;11.32;;;3.72;;
78844;SDS011;68195;50.854;2.860;2023-08-06T03:20:31;9.83;;;3.67;;
78844;SDS011;68195;50.854;2.860;2023-08-06T03:23:00;9.18;;;4.72;;
78844;SDS011;68195;50.854;2.860;2023-08-06T03:25:25;11.20;;;3.55;;
78844;SDS011;68195;50.854;2.860;2023-08-06T03:30:16;6.73;;;3.53;;
78844;SDS011;68195;50.854;2.860;2023-08-06T03:35:06;7.63;;;2.70;;
78844;SDS011;68195;50.854;2.860;2023-08-06T03:39:57;7.43;;;3.23;;
78844;SDS011;68195;50.854;2.860;2023-08-06T03:42:25;6.40;;;2.67;;
78844;SDS011;68195;50.854;2.860;2023-08-06T03:47:15;9.80;;;2.73;;
78844;SDS011;68195;50.854;2.860;2023-08-06T03:52:06;10.70;;;3.33;;
78844;SDS011;68195;50.854;2.860;2023-08-06T03:56:57;7.50;;;2.67;;
78844;SDS011;68195;50.854;2.860;2023-08-06T03:59:25;9.35;;;3.17;;
78844;SDS011;68195;50.854;2.860;2023-08-06T04:04:18;9.32;;;3.45;;
78844;SDS011;68195;50.854;2.860;2023-08-06T04:09:11;6.72;;;2.95;;
78844;SDS011;68195;50.854;2.860;2023-08-06T04:11:40;6.68;;;3.05;;
78844;SDS011;68195;50.854;2.860;2023-08-06T04:16:30;8.27;;;3.50;;
78844;SDS011;68195;50.854;2.860;2023-08-06T04:18:56;7.15;;;2.65;;
78844;SDS011;68195;50.854;2.860;2023-08-06T04:21:21;4.70;;;2.83;;
78844;SDS011;68195;50.854;2.860;2023-08-06T04:26:14;8.68;;;3.90;;
78844;SDS011;68195;50.854;2.860;2023-08-06T04:28:42;10.75;;;2.80;;
78844;SDS011;68195;50.854;2.860;2023-08-06T04:33:33;9.05;;;2.55;;
78844;SDS011;68195;50.854;2.860;2023-08-06T04:38:28;10.02;;;3.67;;
78844;SDS011;68195;50.854;2.860;2023-08-06T04:40:56;8.05;;;2.35;;
78844;SDS011;68195;50.854;2.860;2023-08-06T04:43:24;6.60;;;2.58;;
78844;SDS011;68195;50.854;2.860;2023-08-06T04:48:16;8.90;;;2.40;;
78844;SDS011;68195;50.854;2.860;2023-08-06T04:50:46;6.05;;;2.20;;
78844;SDS011;68195;50.854;2.860;2023-08-06T04:53:15;6.80;;;2.13;;
78844;SDS011;68195;50.854;2.860;2023-08-06T04:55:43;6.50;;;2.00;;
78844;SDS011;68195;50.854;2.860;2023-08-06T05:00:34;4.00;;;1.92;;
78844;SDS011;68195;50.854;2.860;2023-08-06T05:05:26;6.30;;;1.65;;
78844;SDS011;68195;50.854;2.860;2023-08-06T05:10:19;5.55;;;2.47;;
78844;SDS011;68195;50.854;2.860;2023-08-06T05:15:09;5.27;;;2.27;;
78844;SDS011;68195;50.854;2.860;2023-08-06T05:20:03;6.05;;;2.17;;
78844;SDS011;68195;50.854;2.860;2023-08-06T05:22:28;11.05;;;4.07;;
78844;SDS011;68195;50.854;2.860;2023-08-06T05:27:19;5.63;;;2.23;;
78844;SDS011;68195;50.854;2.860;2023-08-06T05:32:13;4.22;;;2.42;;
78844;SDS011;68195;50.854;2.860;2023-08-06T05:34:40;9.25;;;2.90;;
78844;SDS011;68195;50.854;2.860;2023-08-06T05:39:32;9.07;;;2.95;;
78844;SDS011;68195;50.854;2.860;2023-08-06T05:44:27;8.10;;;3.28;;
78844;SDS011;68195;50.854;2.860;2023-08-06T05:46:53;7.68;;;2.58;;
78844;SDS011;68195;50.854;2.860;2023-08-06T05:51:43;5.10;;;2.45;;
78844;SDS011;68195;50.854;2.860;2023-08-06T05:56:36;7.15;;;2.70;;
78844;SDS011;68195;50.854;2.860;2023-08-06T05:59:04;6.13;;;2.35;;
78844;SDS011;68195;50.854;2.860;2023-08-06T06:01:32;9.98;;;2.65;;
78844;SDS011;68195;50.854;2.860;2023-08-06T06:04:02;7.43;;;2.70;;
78844;SDS011;68195;50.854;2.860;2023-08-06T06:06:27;11.48;;;3.40;;
78844;SDS011;68195;50.854;2.860;2023-08-06T06:08:58;8.27;;;2.75;;
78844;SDS011;68195;50.854;2.860;2023-08-06T06:13:51;8.63;;;2.55;;
78844;SDS011;68195;50.854;2.860;2023-08-06T06:18:44;8.67;;;2.67;;
78844;SDS011;68195;50.854;2.860;2023-08-06T06:21:12;9.40;;;3.05;;
78844;SDS011;68195;50.854;2.860;2023-08-06T06:23:40;6.03;;;2.35;;
78844;SDS011;68195;50.854;2.860;2023-08-06T06:26:07;10.80;;;3.58;;
78844;SDS011;68195;50.854;2.860;2023-08-06T06:28:35;5.82;;;2.47;;
78844;SDS011;68195;50.854;2.860;2023-08-06T06:31:03;5.63;;;2.45;;
78844;SDS011;68195;50.854;2.860;2023-08-06T06:33:31;6.22;;;2.20;;
78844;SDS011;68195;50.854;2.860;2023-08-06T06:38:24;9.15;;;2.15;;
78844;SDS011;68195;50.854;2.860;2023-08-06T06:43:22;5.82;;;2.28;;
78844;SDS011;68195;50.854;2.860;2023-08-06T06:45:52;10.88;;;3.38;;
78844;SDS011;68195;50.854;2.860;2023-08-06T06:48:18;6.38;;;2.00;;
78844;SDS011;68195;50.854;2.860;2023-08-06T06:53:12;4.60;;;2.33;;
78844;SDS011;68195;50.854;2.860;2023-08-06T06:58:02;8.23;;;2.67;;
78844;SDS011;68195;50.854;2.860;2023-08-06T07:02:55;4.17;;;2.33;;
78844;SDS011;68195;50.854;2.860;2023-08-06T07:05:23;3.25;;;2.08;;
78844;SDS011;68195;50.854;2.860;2023-08-06T07:07:51;4.15;;;2.10;;
78844;SDS011;68195;50.854;2.860;2023-08-06T07:10:22;6.43;;;2.20;;
78844;SDS011;68195;50.854;2.860;2023-08-06T07:12:50;4.90;;;1.85;;
78844;SDS011;68195;50.854;2.860;2023-08-06T07:15:18;5.25;;;2.00;;
78844;SDS011;68195;50.854;2.860;2023-08-06T07:20:09;8.02;;;2.20;;
78844;SDS011;68195;50.854;2.860;2023-08-06T07:22:35;5.85;;;2.50;;
78844;SDS011;68195;50.854;2.860;2023-08-06T07:27:30;4.90;;;2.00;;
78844;SDS011;68195;50.854;2.860;2023-08-06T07:29:59;6.97;;;2.10;;
78844;SDS011;68195;50.854;2.860;2023-08-06T07:32:27;6.72;;;2.60;;
78844;SDS011;68195;50.854;2.860;2023-08-06T07:34:55;9.63;;;2.92;;
78844;SDS011;68195;50.854;2.860;2023-08-06T07:37:25;6.32;;;2.53;;
78844;SDS011;68195;50.854;2.860;2023-08-06T07:39:57;6.80;;;2.17;;
78844;SDS011;68195;50.854;2.860;2023-08-06T07:42:22;7.15;;;2.35;;
78844;SDS011;68195;50.854;2.860;2023-08-06T07:47:32;7.55;;;2.63;;
78844;SDS011;68195;50.854;2.860;2023-08-06T07:52:22;7.13;;;3.00;;
78844;SDS011;68195;50.854;2.860;2023-08-06T07:57:13;5.78;;;2.25;;
78844;SDS011;68195;50.854;2.860;2023-08-06T07:59:40;6.90;;;2.38;;
78844;SDS011;68195;50.854;2.860;2023-08-06T08:04:34;7.63;;;2.45;;
78844;SDS011;68195;50.854;2.860;2023-08-06T08:09:24;3.97;;;2.13;;
78844;SDS011;68195;50.854;2.860;2023-08-06T08:11:52;5.07;;;2.03;;
78844;SDS011;68195;50.854;2.860;2023-08-06T08:14:17;7.65;;;2.03;;
78844;SDS011;68195;50.854;2.860;2023-08-06T08:19:08;5.17;;;1.90;;
78844;SDS011;68195;50.854;2.860;2023-08-06T08:24:04;7.90;;;2.10;;
78844;SDS011;68195;50.854;2.860;2023-08-06T08:26:30;3.33;;;1.80;;
78844;SDS011;68195;50.854;2.860;2023-08-06T08:28:58;4.97;;;2.00;;
78844;SDS011;68195;50.854;2.860;2023-08-06T08:31:25;4.85;;;2.00;;
78844;SDS011;68195;50.854;2.860;2023-08-06T08:36:16;6.03;;;2.28;;
78844;SDS011;68195;50.854;2.860;2023-08-06T08:38:43;6.70;;;2.28;;
78844;SDS011;68195;50.854;2.860;2023-08-06T08:43:37;3.38;;;2.00;;
78844;SDS011;68195;50.854;2.860;2023-08-06T08:46:07;7.32;;;2.33;;
78844;SDS011;68195;50.854;2.860;2023-08-06T08:48:36;6.22;;;2.10;;
78844;SDS011;68195;50.854;2.860;2023-08-06T08:53:28;5.78;;;1.63;;
78844;SDS011;68195;50.854;2.860;2023-08-06T08:55:56;4.70;;;2.38;;
78844;SDS011;68195;50.854;2.860;2023-08-06T09:00:50;4.85;;;2.40;;
78844;SDS011;68195;50.854;2.860;2023-08-06T09:03:16;4.35;;;1.92;;
78844;SDS011;68195;50.854;2.860;2023-08-06T09:05:44;8.25;;;2.58;;
78844;SDS011;68195;50.854;2.860;2023-08-06T09:08:11;4.28;;;2.10;;
78844;SDS011;68195;50.854;2.860;2023-08-06T09:10:40;6.18;;;2.03;;
78844;SDS011;68195;50.854;2.860;2023-08-06T09:13:07;3.95;;;1.90;;
78844;SDS011;68195;50.854;2.860;2023-08-06T09:18:08;3.38;;;2.33;;
78844;SDS011;68195;50.854;2.860;2023-08-06T09:20:34;6.82;;;2.15;;
78844;SDS011;68195;50.854;2.860;2023-08-06T09:23:09;4.65;;;2.00;;
78844;SDS011;68195;50.854;2.860;2023-08-06T09:25:37;5.30;;;2.58;;
78844;SDS011;68195;50.854;2.860;2023-08-06T09:28:04;8.02;;;2.00;;
78844;SDS011;68195;50.854;2.860;2023-08-06T09:30:33;4.00;;;1.73;;
78844;SDS011;68195;50.854;2.860;2023-08-06T09:33:02;5.20;;;2.15;;
78844;SDS011;68195;50.854;2.860;2023-08-06T09:35:38;6.00;;;2.33;;
78844;SDS011;68195;50.854;2.860;2023-08-06T09:38:09;7.88;;;1.98;;
78844;SDS011;68195;50.854;2.860;2023-08-06T09:40:36;10.48;;;2.47;;
78844;SDS011;68195;50.854;2.860;2023-08-06T09:43:06;6.53;;;2.30;;
78844;SDS011;68195;50.854;2.860;2023-08-06T09:45:32;6.65;;;2.35;;
78844;SDS011;68195;50.854;2.860;2023-08-06T09:48:04;6.07;;;2.35;;
78844;SDS011;68195;50.854;2.860;2023-08-06T09:50:32;3.72;;;1.55;;
78844;SDS011;68195;50.854;2.860;2023-08-06T09:53:03;5.13;;;2.42;;
78844;SDS011;68195;50.854;2.860;2023-08-06T09:55:33;5.85;;;2.30;;
78844;SDS011;68195;50.854;2.860;2023-08-06T09:57:59;4.97;;;2.03;;
78844;SDS011;68195;50.854;2.860;2023-08-06T10:02:51;4.65;;;2.40;;
78844;SDS011;68195;50.854;2.860;2023-08-06T10:05:21;3.80;;;2.00;;
78844;SDS011;68195;50.854;2.860;2023-08-06T10:07:47;5.32;;;2.22;;
78844;SDS011;68195;50.854;2.860;2023-08-06T10:10:14;5.03;;;2.00;;
78844;SDS011;68195;50.854;2.860;2023-08-06T10:15:10;4.95;;;1.92;;
78844;SDS011;68195;50.854;2.860;2023-08-06T10:17:40;8.57;;;2.42;;
78844;SDS011;68195;50.854;2.860;2023-08-06T10:20:08;6.85;;;2.65;;
78844;SDS011;68195;50.854;2.860;2023-08-06T10:22:35;4.15;;;1.60;;
78844;SDS011;68195;50.854;2.860;2023-08-06T10:27:30;3.72;;;1.70;;
78844;SDS011;68195;50.854;2.860;2023-08-06T10:32:58;4.25;;;1.90;;
78844;SDS011;68195;50.854;2.860;2023-08-06T10:35:30;7.43;;;2.13;;
78844;SDS011;68195;50.854;2.860;2023-08-06T10:38:12;6.97;;;2.35;;
78844;SDS011;68195;50.854;2.860;2023-08-06T10:41:01;5.90;;;2.42;;
78844;SDS011;68195;50.854;2.860;2023-08-06T10:43:36;4.75;;;2.17;;
78844;SDS011;68195;50.854;2.860;2023-08-06T10:46:11;5.35;;;2.75;;
78844;SDS011;68195;50.854;2.860;2023-08-06T10:48:45;2.53;;;1.65;;
78844;SDS011;68195;50.854;2.860;2023-08-06T10:51:16;3.20;;;1.63;;
78844;SDS011;68195;50.854;2.860;2023-08-06T10:56:28;4.72;;;1.85;;
78844;SDS011;68195;50.854;2.860;2023-08-06T10:58:56;7.43;;;2.15;;
78844;SDS011;68195;50.854;2.860;2023-08-06T11:01:22;4.75;;;1.80;;
78844;SDS011;68195;50.854;2.860;2023-08-06T11:03:51;6.50;;;2.17;;
78844;SDS011;68195;50.854;2.860;2023-08-06T11:06:18;5.32;;;1.92;;
78844;SDS011;68195;50.854;2.860;2023-08-06T11:08:53;4.90;;;1.85;;
78844;SDS011;68195;50.854;2.860;2023-08-06T11:11:22;6.40;;;2.40;;
78844;SDS011;68195;50.854;2.860;2023-08-06T11:13:48;3.08;;;2.03;;
78844;SDS011;68195;50.854;2.860;2023-08-06T11:16:16;4.80;;;2.08;;
78844;SDS011;68195;50.854;2.860;2023-08-06T11:18:43;7.10;;;2.85;;
78844;SDS011;68195;50.854;2.860;2023-08-06T11:23:37;7.43;;;2.20;;
78844;SDS011;68195;50.854;2.860;2023-08-06T11:28:28;5.70;;;3.45;;
78844;SDS011;68195;50.854;2.860;2023-08-06T11:33:26;7.13;;;1.63;;
78844;SDS011;68195;50.854;2.860;2023-08-06T11:35:58;5.95;;;1.92;;
78844;SDS011;68195;50.854;2.860;2023-08-06T11:38:28;3.83;;;2.00;;
78844;SDS011;68195;50.854;2.860;2023-08-06T11:40:54;3.42;;;1.65;;
78844;SDS011;68195;50.854;2.860;2023-08-06T11:43:20;2.85;;;1.60;;
78844;SDS011;68195;50.854;2.860;2023-08-06T11:45:47;4.10;;;2.00;;
78844;SDS011;68195;50.854;2.860;2023-08-06T11:48:18;5.75;;;2.03;;
78844;SDS011;68195;50.854;2.860;2023-08-06T11:50:46;5.95;;;2.00;;
78844;SDS011;68195;50.854;2.860;2023-08-06T11:53:12;5.10;;;1.65;;
78844;SDS011;68195;50.854;2.860;2023-08-06T11:55:42;8.43;;;2.08;;
78844;SDS011;68195;50.854;2.860;2023-08-06T11:58:09;4.63;;;1.60;;
78844;SDS011;68195;50.854;2.860;2023-08-06T12:00:42;3.80;;;1.60;;
78844;SDS011;68195;50.854;2.860;2023-08-06T12:03:07;4.45;;;1.85;;
78844;SDS011;68195;50.854;2.860;2023-08-06T12:05:35;4.65;;;1.75;;
78844;SDS011;68195;50.854;2.860;2023-08-06T12:10:31;5.78;;;1.90;;
78844;SDS011;68195;50.854;2.860;2023-08-06T12:12:57;5.75;;;1.83;;
78844;SDS011;68195;50.854;2.860;2023-08-06T12:15:26;3.42;;;1.70;;
78844;SDS011;68195;50.854;2.860;2023-08-06T12:20:21;3.28;;;1.58;;
78844;SDS011;68195;50.854;2.860;2023-08-06T12:22:49;2.97;;;1.83;;
78844;SDS011;68195;50.854;2.860;2023-08-06T12:25:14;5.38;;;1.65;;
78844;SDS011;68195;50.854;2.860;2023-08-06T12:30:09;3.58;;;2.05;;
78844;SDS011;68195;50.854;2.860;2023-08-06T12:32:36;2.28;;;1.40;;
78844;SDS011;68195;50.854;2.860;2023-08-06T12:35:03;4.47;;;1.60;;
78844;SDS011;68195;50.854;2.860;2023-08-06T12:37:32;4.05;;;1.50;;
78844;SDS011;68195;50.854;2.860;2023-08-06T12:39:58;4.05;;;1.48;;
78844;SDS011;68195;50.854;2.860;2023-08-06T12:42:23;5.32;;;1.50;;
78844;SDS011;68195;50.854;2.860;2023-08-06T12:44:49;4.72;;;1.50;;
78844;SDS011;68195;50.854;2.860;2023-08-06T12:47:15;3.83;;;1.50;;
78844;SDS011;68195;50.854;2.860;2023-08-06T12:49:41;3.25;;;1.40;;
78844;SDS011;68195;50.854;2.860;2023-08-06T12:52:07;5.22;;;1.45;;
78844;SDS011;68195;50.854;2.860;2023-08-06T12:54:34;6.38;;;1.40;;
78844;SDS011;68195;50.854;2.860;2023-08-06T12:57:04;5.50;;;1.45;;
78844;SDS011;68195;50.854;2.860;2023-08-06T12:59:30;5.00;;;1.58;;
78844;SDS011;68195;50.854;2.860;2023-08-06T13:04:24;2.88;;;1.60;;
78844;SDS011;68195;50.854;2.860;2023-08-06T13:06:52;4.25;;;1.75;;
78844;SDS011;68195;50.854;2.860;2023-08-06T13:11:44;4.20;;;1.80;;
78844;SDS011;68195;50.854;2.860;2023-08-06T13:14:15;5.57;;;1.75;;
78844;SDS011;68195;50.854;2.860;2023-08-06T13:19:08;4.30;;;2.00;;
78844;SDS011;68195;50.854;2.860;2023-08-06T13:24:06;3.42;;;1.70;;
78844;SDS011;68195;50.854;2.860;2023-08-06T13:26:35;3.53;;;1.70;;
78844;SDS011;68195;50.854;2.860;2023-08-06T13:29:03;6.72;;;1.75;;
78844;SDS011;68195;50.854;2.860;2023-08-06T13:31:32;3.33;;;1.50;;
78844;SDS011;68195;50.854;2.860;2023-08-06T13:36:26;3.10;;;1.80;;
78844;SDS011;68195;50.854;2.860;2023-08-06T13:38:52;2.80;;;1.30;;
78844;SDS011;68195;50.854;2.860;2023-08-06T13:41:20;4.25;;;1.75;;
78844;SDS011;68195;50.854;2.860;2023-08-06T13:46:11;4.13;;;1.58;;
78844;SDS011;68195;50.854;2.860;2023-08-06T13:48:41;4.53;;;1.70;;
78844;SDS011;68195;50.854;2.860;2023-08-06T13:51:10;4.45;;;1.60;;
78844;SDS011;68195;50.854;2.860;2023-08-06T13:53:36;5.20;;;1.70;;
78844;SDS011;68195;50.854;2.860;2023-08-06T13:56:06;3.88;;;1.60;;
78844;SDS011;68195;50.854;2.860;2023-08-06T13:58:32;2.58;;;1.30;;
78844;SDS011;68195;50.854;2.860;2023-08-06T14:00:58;6.00;;;1.42;;
78844;SDS011;68195;50.854;2.860;2023-08-06T14:03:24;3.72;;;1.27;;
78844;SDS011;68195;50.854;2.860;2023-08-06T14:05:52;4.03;;;1.70;;
78844;SDS011;68195;50.854;2.860;2023-08-06T14:08:20;3.65;;;1.73;;
78844;SDS011;68195;50.854;2.860;2023-08-06T14:10:45;6.70;;;2.05;;
78844;SDS011;68195;50.854;2.860;2023-08-06T14:13:11;3.75;;;2.17;;
78844;SDS011;68195;50.854;2.860;2023-08-06T14:15:37;4.15;;;2.00;;
78844;SDS011;68195;50.854;2.860;2023-08-06T14:18:05;5.63;;;1.52;;
78844;SDS011;68195;50.854;2.860;2023-08-06T14:20:31;4.03;;;2.35;;
78844;SDS011;68195;50.854;2.860;2023-08-06T14:22:56;3.00;;;1.90;;
78844;SDS011;68195;50.854;2.860;2023-08-06T14:25:25;4.60;;;2.22;;
78844;SDS011;68195;50.854;2.860;2023-08-06T14:27:58;4.22;;;2.40;;
78844;SDS011;68195;50.854;2.860;2023-08-06T14:30:25;5.15;;;2.05;;
78844;SDS011;68195;50.854;2.860;2023-08-06T14:35:23;7.20;;;2.63;;
78844;SDS011;68195;50.854;2.860;2023-08-06T14:37:48;5.07;;;2.10;;
78844;SDS011;68195;50.854;2.860;2023-08-06T14:42:46;5.93;;;1.85;;
78844;SDS011;68195;50.854;2.860;2023-08-06T14:45:12;6.72;;;2.08;;
78844;SDS011;68195;50.854;2.860;2023-08-06T14:47:38;3.40;;;1.92;;
78844;SDS011;68195;50.854;2.860;2023-08-06T14:50:03;3.33;;;1.58;;
78844;SDS011;68195;50.854;2.860;2023-08-06T14:52:34;4.22;;;2.65;;
78844;SDS011;68195;50.854;2.860;2023-08-06T14:55:03;6.25;;;1.80;;
78844;SDS011;68195;50.854;2.860;2023-08-06T14:57:30;3.95;;;1.70;;
78844;SDS011;68195;50.854;2.860;2023-08-06T14:59:56;8.07;;;3.35;;
78844;SDS011;68195;50.854;2.860;2023-08-06T15:02:22;4.68;;;2.33;;
78844;SDS011;68195;50.854;2.860;2023-08-06T15:04:47;5.35;;;1.95;;
78844;SDS011;68195;50.854;2.860;2023-08-06T15:07:13;3.75;;;1.80;;
78844;SDS011;68195;50.854;2.860;2023-08-06T15:09:41;4.90;;;1.60;;
78844;SDS011;68195;50.854;2.860;2023-08-06T15:12:06;3.15;;;1.55;;
78844;SDS011;68195;50.854;2.860;2023-08-06T15:14:32;4.03;;;1.80;;
78844;SDS011;68195;50.854;2.860;2023-08-06T15:16:57;7.22;;;1.52;;
78844;SDS011;68195;50.854;2.860;2023-08-06T15:19:23;5.07;;;2.03;;
78844;SDS011;68195;50.854;2.860;2023-08-06T15:21:49;3.10;;;1.55;;
78844;SDS011;68195;50.854;2.860;2023-08-06T15:24:15;4.38;;;1.73;;
78844;SDS011;68195;50.854;2.860;2023-08-06T15:26:40;3.38;;;1.60;;
78844;SDS011;68195;50.854;2.860;2023-08-06T15:29:10;7.05;;;1.50;;
78844;SDS011;68195;50.854;2.860;2023-08-06T15:31:38;2.90;;;1.40;;
78844;SDS011;68195;50.854;2.860;2023-08-06T15:34:06;3.78;;;1.25;;
78844;SDS011;68195;50.854;2.860;2023-08-06T15:36:33;3.00;;;1.40;;
78844;SDS011;68195;50.854;2.860;2023-08-06T15:38:59;4.03;;;1.35;;
78844;SDS011;68195;50.854;2.860;2023-08-06T15:41:25;2.60;;;1.67;;
78844;SDS011;68195;50.854;2.860;2023-08-06T15:43:50;3.05;;;1.20;;
78844;SDS011;68195;50.854;2.860;2023-08-06T15:46:16;2.08;;;1.15;;
78844;SDS011;68195;50.854;2.860;2023-08-06T15:48:41;1.20;;;1.00;;
78844;SDS011;68195;50.854;2.860;2023-08-06T15:51:07;1.45;;;1.15;;
78844;SDS011;68195;50.854;2.860;2023-08-06T15:56:00;4.32;;;1.40;;
78844;SDS011;68195;50.854;2.860;2023-08-06T15:58:27;2.28;;;1.40;;
78844;SDS011;68195;50.854;2.860;2023-08-06T16:03:18;3.53;;;1.77;;
78844;SDS011;68195;50.854;2.860;2023-08-06T16:08:08;3.90;;;1.95;;
78844;SDS011;68195;50.854;2.860;2023-08-06T16:10:37;3.00;;;1.63;;
78844;SDS011;68195;50.854;2.860;2023-08-06T16:15:28;4.57;;;1.73;;
78844;SDS011;68195;50.854;2.860;2023-08-06T16:17:53;4.82;;;1.80;;
78844;SDS011;68195;50.854;2.860;2023-08-06T16:20:19;3.47;;;1.40;;
78844;SDS011;68195;50.854;2.860;2023-08-06T16:22:44;3.72;;;1.70;;
78844;SDS011;68195;50.854;2.860;2023-08-06T16:25:11;2.97;;;1.83;;
78844;SDS011;68195;50.854;2.860;2023-08-06T16:27:39;5.60;;;1.40;;
78844;SDS011;68195;50.854;2.860;2023-08-06T16:30:08;6.03;;;1.85;;
78844;SDS011;68195;50.854;2.860;2023-08-06T16:32:39;3.15;;;2.00;;
78844;SDS011;68195;50.854;2.860;2023-08-06T16:37:31;3.30;;;1.63;;
78844;SDS011;68195;50.854;2.860;2023-08-06T16:42:22;4.77;;;1.30;;
78844;SDS011;68195;50.854;2.860;2023-08-06T16:44:50;4.80;;;1.67;;
78844;SDS011;68195;50.854;2.860;2023-08-06T16:47:18;3.10;;;1.33;;
78844;SDS011;68195;50.854;2.860;2023-08-06T16:49:46;3.85;;;1.73;;
78844;SDS011;68195;50.854;2.860;2023-08-06T16:54:37;3.75;;;1.40;;
78844;SDS011;68195;50.854;2.860;2023-08-06T16:57:02;2.67;;;1.50;;
78844;SDS011;68195;50.854;2.860;2023-08-06T16:59:30;2.92;;;1.42;;
78844;SDS011;68195;50.854;2.860;2023-08-06T17:01:58;4.50;;;1.20;;
78844;SDS011;68195;50.854;2.860;2023-08-06T17:04:23;4.18;;;1.30;;
78844;SDS011;68195;50.854;2.860;2023-08-06T17:06:49;2.85;;;1.27;;
78844;SDS011;68195;50.854;2.860;2023-08-06T17:09:14;7.50;;;1.63;;
78844;SDS011;68195;50.854;2.860;2023-08-06T17:11:39;3.03;;;1.10;;
78844;SDS011;68195;50.854;2.860;2023-08-06T17:14:05;2.92;;;1.10;;
78844;SDS011;68195;50.854;2.860;2023-08-06T17:16:30;4.22;;;1.10;;
78844;SDS011;68195;50.854;2.860;2023-08-06T17:19:00;2.75;;;1.25;;
78844;SDS011;68195;50.854;2.860;2023-08-06T17:21:26;4.07;;;1.00;;
78844;SDS011;68195;50.854;2.860;2023-08-06T17:23:51;1.60;;;1.13;;
78844;SDS011;68195;50.854;2.860;2023-08-06T17:26:17;4.57;;;1.35;;
78844;SDS011;68195;50.854;2.860;2023-08-06T17:28:44;1.77;;;1.00;;
78844;SDS011;68195;50.854;2.860;2023-08-06T17:31:10;4.05;;;1.30;;
78844;SDS011;68195;50.854;2.860;2023-08-06T17:33:38;3.78;;;1.30;;
78844;SDS011;68195;50.854;2.860;2023-08-06T17:36:03;4.82;;;0.98;;
78844;SDS011;68195;50.854;2.860;2023-08-06T17:38:29;2.65;;;1.30;;
78844;SDS011;68195;50.854;2.860;2023-08-06T17:40:57;3.92;;;1.40;;
78844;SDS011;68195;50.854;2.860;2023-08-06T17:43:29;2.33;;;1.33;;
78844;SDS011;68195;50.854;2.860;2023-08-06T17:45:56;1.70;;;1.02;;
78844;SDS011;68195;50.854;2.860;2023-08-06T17:48:27;1.73;;;1.00;;
78844;SDS011;68195;50.854;2.860;2023-08-06T17:50:53;3.60;;;1.33;;
78844;SDS011;68195;50.854;2.860;2023-08-06T17:53:21;2.92;;;1.10;;
78844;SDS011;68195;50.854;2.860;2023-08-06T17:55:47;2.08;;;1.23;;
78844;SDS011;68195;50.854;2.860;2023-08-06T17:58:13;2.90;;;1.33;;
78844;SDS011;68195;50.854;2.860;2023-08-06T18:00:41;2.35;;;1.30;;
78844;SDS011;68195;50.854;2.860;2023-08-06T18:03:09;4.38;;;1.50;;
78844;SDS011;68195;50.854;2.860;2023-08-06T18:05:34;3.25;;;1.40;;
78844;SDS011;68195;50.854;2.860;2023-08-06T18:08:00;3.03;;;1.35;;
78844;SDS011;68195;50.854;2.860;2023-08-06T18:10:25;3.75;;;1.20;;
78844;SDS011;68195;50.854;2.860;2023-08-06T18:12:51;3.25;;;1.13;;
78844;SDS011;68195;50.854;2.860;2023-08-06T18:15:16;5.28;;;1.33;;
78844;SDS011;68195;50.854;2.860;2023-08-06T18:17:41;2.95;;;1.48;;
78844;SDS011;68195;50.854;2.860;2023-08-06T18:20:13;3.42;;;1.30;;
78844;SDS011;68195;50.854;2.860;2023-08-06T18:22:39;4.60;;;1.75;;
78844;SDS011;68195;50.854;2.860;2023-08-06T18:25:05;5.22;;;1.40;;
78844;SDS011;68195;50.854;2.860;2023-08-06T18:27:32;6.95;;;1.52;;
78844;SDS011;68195;50.854;2.860;2023-08-06T18:29:58;3.50;;;1.70;;
78844;SDS011;68195;50.854;2.860;2023-08-06T18:32:24;2.92;;;1.27;;